Andrews Air Force Base
KADW : now visible

Airfield :











YOU CAN JOIN US ON...

 
LOGIN :

Register | Disclaimer

   EN    FR    IT 

 









Legend :    VFR   Marginal VFR   IFR   Intensive IFR   Very Intensive IFR
Visi :
Ceiling :
>= 8 km
>= 3000ft
5 to 8 km
1000 to 3000 ft
1500m to 5 km
500 to 1000 ft
800 to 1500m
200 to 500 ft
< 800m
< 200 ft
Symbols :   Thunderstorms  Fog  Heavy snow  Heavy precipitations  Wind > 20 kt






- Airport Elevation : 280 ft


KADW - Andrews Air Force Base

CURRENT METAR :
  • 281356Z AUTO 15013KT 10SM OVC008 23/22 A3008 RMK AO2 DZB11E20 CIG 007 RWY19L SLP191 P0000 T02250223 $

EXPIRED METARs :
  • 281320Z AUTO 15014KT 10SM OVC006 22/22 A3009 RMK AO2 DZB11E20 CIG 005 RWY19L SLP195 $
  • 281312Z AUTO 14014G19KT 10SM -DZ OVC006 22/22 A3008 RMK AO2 DZB11 CIG 005 RWY19L SLP191 $
  • 281256Z AUTO 14012KT 10SM OVC007 22/22 A3009 RMK AO2 DZE1158RAB08E18DZB18E19 CIG 006 RWY19L SLP195 P0000 T02200220 $
  • 281249Z AUTO 15013KT 10SM OVC007 22/22 A3009 RMK AO2 DZE1158RAB08E18DZB18E19 CIG 006 RWY19L SLP195 $
  • 281219Z AUTO 14014KT 10SM OVC008 22/22 A3008 RMK AO2 DZE1158RAB08E18DZB18E19 CIG 007 RWY19L SLP191 $
  • 281158Z AUTO 14009KT 9SM BKN007 OVC011 22/22 A3008 RMK AO2 DZE58 BKN V OVC CIG 006 RWY19L SLP191 $
  • 281156Z AUTO 14010KT 9SM -DZ BKN007 OVC011 22/22 A3008 RMK AO2 DZB02E11DZB49 BKN V OVC CIG 006 RWY19L SLP191 P0001 60003 70003 T02150215 10215 20210 55003 $
  • 281149Z AUTO 13011KT 10SM -DZ BKN007 OVC012 22/22 A3008 RMK AO2 DZB02E11DZB49 BKN V OVC CIG 006 RWY19L SLP191 $
  • 281111Z AUTO 14008KT 10SM OVC007 21/21 A3008 RMK AO2 DZB02E11 CIG 005 RWY19L SLP191 $

TAF AMD TAF KADW
Valid from the 28 at 11:00 until the 29 at 15:00 UTC


281120Z 2811/2915 14012KT 9999 VCSH OVC007 QNH3008INS
BECMG 2813/2814 15012G20KT 9999 VCSH OVC008 QNH3007INS
BECMG 2814/2815 15012G20KT 9999 VCSH OVC010 QNH3004INS
BECMG 2816/2817 16012G20KT 8000 -SHRA VCTS FEW020CB BKN040 BKN120 BKN250 QNH2998INS
TEMPO 2817/2823 22015G30KT 3200 TSRA BKN020CB OVC100
BECMG 2822/2823 17010G20KT 9999 VCSH SCT025 SCT120 BKN250 QNH2998INS
BECMG 2900/2901 17012KT 9999 NSW BKN020 BKN250 QNH3000INS
BECMG 2903/2904 18012KT 9999 OVC010 QNH3000INS
BECMG 2906/2907 19012KT 9999 OVC006 QNH3000INS
BECMG 2912/2913 20010G20KT 8000 -SHRA VCTS FEW010CB BKN020 BKN120 BKN250 QNH3000INS TX29/2820Z TN21/2811Z
KZDC FIR / North America



MET'MAP, your aeronautical weather chart ! - Copyright ORBIFLY December 2007 - Disclaimer

ORBIFLY MET'MAP TEAM :

Programming & Development : Alexandra Zaïnal
Concept & original design : Baudouin d'Aumeries
Assistance for programming : Marc-Olivier Méhu
Technical & hardware support : Manuel Goepfert

Contact : metmap@orbifly.com




SOURCES & CREDITS :

   NOAA       Earth
Advisory